sensor_id;sensor_type;location;lat;lon;timestamp;P1;P2;P0
77516;PMS7003;66628;53.946;27.634;2023-02-01T00:00:42;1.550000;0.950000;0.300000
77516;PMS7003;66628;53.946;27.634;2023-02-01T00:01:42;1.483333;1.316667;0.550000
77516;PMS7003;66628;53.946;27.634;2023-02-01T00:02:42;3.200000;2.700000;0.933333
77516;PMS7003;66628;53.946;27.634;2023-02-01T00:03:42;1.650000;1.283333;0.633333
77516;PMS7003;66628;53.946;27.634;2023-02-01T00:04:42;2.633333;0.900000;0.433333
77516;PMS7003;66628;53.946;27.634;2023-02-01T00:05:42;2.266667;1.700000;0.933333
77516;PMS7003;66628;53.946;27.634;2023-02-01T00:06:42;2.366667;1.666667;1.000000
77516;PMS7003;66628;53.946;27.634;2023-02-01T00:07:42;2.366667;1.733333;1.100000
77516;PMS7003;66628;53.946;27.634;2023-02-01T00:08:42;1.933333;1.833333;1.000000
77516;PMS7003;66628;53.946;27.634;2023-02-01T00:09:42;2.016667;1.483333;0.616667
77516;PMS7003;66628;53.946;27.634;2023-02-01T00:10:42;1.233333;1.233333;1.033333
77516;PMS7003;66628;53.946;27.634;2023-02-01T00:11:42;1.616667;1.616667;0.716667
77516;PMS7003;66628;53.946;27.634;2023-02-01T00:12:43;2.016667;1.450000;0.416667
77516;PMS7003;66628;53.946;27.634;2023-02-01T00:13:42;1.983333;1.550000;0.466667
77516;PMS7003;66628;53.946;27.634;2023-02-01T00:14:42;0.533333;0.533333;0.250000
77516;PMS7003;66628;53.946;27.634;2023-02-01T00:15:42;2.000000;2.000000;0.933333
77516;PMS7003;66628;53.946;27.634;2023-02-01T00:16:42;1.433333;1.433333;0.766667
77516;PMS7003;66628;53.946;27.634;2023-02-01T00:17:42;1.316667;1.316667;0.750000
77516;PMS7003;66628;53.946;27.634;2023-02-01T00:18:43;1.916667;1.266667;0.733333
77516;PMS7003;66628;53.946;27.634;2023-02-01T00:19:42;1.066667;1.066667;0.583333
77516;PMS7003;66628;53.946;27.634;2023-02-01T00:20:46;2.900000;1.466667;0.533333
77516;PMS7003;66628;53.946;27.634;2023-02-01T00:21:42;0.966667;0.500000;0.233333
77516;PMS7003;66628;53.946;27.634;2023-02-01T00:22:42;0.516667;0.516667;0.266667
77516;PMS7003;66628;53.946;27.634;2023-02-01T00:23:42;0.916667;0.916667;0.250000
77516;PMS7003;66628;53.946;27.634;2023-02-01T00:24:42;1.516667;0.666667;0.366667
77516;PMS7003;66628;53.946;27.634;2023-02-01T00:25:42;2.166667;2.166667;1.000000
77516;PMS7003;66628;53.946;27.634;2023-02-01T00:26:44;1.383333;1.383333;0.400000
77516;PMS7003;66628;53.946;27.634;2023-02-01T00:27:42;1.566667;1.316667;0.900000
77516;PMS7003;66628;53.946;27.634;2023-02-01T00:28:42;1.733333;1.733333;0.916667
77516;PMS7003;66628;53.946;27.634;2023-02-01T00:29:43;2.033333;1.300000;0.516667
77516;PMS7003;66628;53.946;27.634;2023-02-01T00:30:42;1.483333;1.150000;0.783333
77516;PMS7003;66628;53.946;27.634;2023-02-01T00:31:43;1.566667;1.333333;0.633333
77516;PMS7003;66628;53.946;27.634;2023-02-01T00:32:42;1.200000;0.700000;0.183333
77516;PMS7003;66628;53.946;27.634;2023-02-01T00:33:42;1.883333;1.883333;0.950000
77516;PMS7003;66628;53.946;27.634;2023-02-01T00:34:42;1.216667;0.833333;0.150000
77516;PMS7003;66628;53.946;27.634;2023-02-01T00:35:42;1.400000;1.400000;0.600000
77516;PMS7003;66628;53.946;27.634;2023-02-01T00:36:43;1.083333;0.516667;0.350000
77516;PMS7003;66628;53.946;27.634;2023-02-01T00:37:42;0.483333;0.483333;0.250000
77516;PMS7003;66628;53.946;27.634;2023-02-01T00:38:42;2.116667;1.116667;0.533333
77516;PMS7003;66628;53.946;27.634;2023-02-01T00:39:42;1.150000;0.850000;0.750000
77516;PMS7003;66628;53.946;27.634;2023-02-01T00:40:42;1.583333;1.416667;0.883333
77516;PMS7003;66628;53.946;27.634;2023-02-01T00:41:43;1.333333;1.333333;0.566667
77516;PMS7003;66628;53.946;27.634;2023-02-01T00:42:42;1.716667;1.716667;0.883333
77516;PMS7003;66628;53.946;27.634;2023-02-01T00:43:43;1.016667;1.016667;0.900000
77516;PMS7003;66628;53.946;27.634;2023-02-01T00:44:42;1.533333;1.366667;1.000000
77516;PMS7003;66628;53.946;27.634;2023-02-01T00:45:42;0.950000;0.950000;0.400000
77516;PMS7003;66628;53.946;27.634;2023-02-01T00:46:42;1.166667;1.166667;0.600000
77516;PMS7003;66628;53.946;27.634;2023-02-01T00:47:42;1.733333;1.166667;0.433333
77516;PMS7003;66628;53.946;27.634;2023-02-01T00:48:43;2.000000;1.200000;0.433333
77516;PMS7003;66628;53.946;27.634;2023-02-01T00:49:45;1.083333;0.983333;0.716667
77516;PMS7003;66628;53.946;27.634;2023-02-01T00:50:42;0.800000;0.800000;0.733333
77516;PMS7003;66628;53.946;27.634;2023-02-01T00:51:42;1.883333;1.716667;0.916667
77516;PMS7003;66628;53.946;27.634;2023-02-01T00:52:42;1.450000;0.783333;0.433333
77516;PMS7003;66628;53.946;27.634;2023-02-01T00:53:43;1.216667;0.950000;0.266667
77516;PMS7003;66628;53.946;27.634;2023-02-01T00:54:42;0.833333;0.833333;0.616667
77516;PMS7003;66628;53.946;27.634;2023-02-01T00:55:47;1.733333;1.166667;0.466667
77516;PMS7003;66628;53.946;27.634;2023-02-01T00:56:42;1.883333;1.183333;0.366667
77516;PMS7003;66628;53.946;27.634;2023-02-01T00:57:42;1.183333;1.183333;0.733333
77516;PMS7003;66628;53.946;27.634;2023-02-01T00:58:43;0.983333;0.983333;0.733333
77516;PMS7003;66628;53.946;27.634;2023-02-01T00:59:42;0.816667;0.816667;0.500000
77516;PMS7003;66628;53.946;27.634;2023-02-01T01:00:42;1.600000;1.600000;1.366667
77516;PMS7003;66628;53.946;27.634;2023-02-01T01:01:42;2.316667;1.450000;0.750000
77516;PMS7003;66628;53.946;27.634;2023-02-01T01:02:42;2.466667;1.516667;0.450000
77516;PMS7003;66628;53.946;27.634;2023-02-01T01:03:48;1.100000;1.100000;0.600000
77516;PMS7003;66628;53.946;27.634;2023-02-01T01:04:42;1.566667;1.000000;0.616667
77516;PMS7003;66628;53.946;27.634;2023-02-01T01:05:45;1.533333;0.633333;0.233333
77516;PMS7003;66628;53.946;27.634;2023-02-01T01:06:42;1.533333;1.533333;0.700000
77516;PMS7003;66628;53.946;27.634;2023-02-01T01:07:42;1.016667;0.750000;0.583333
77516;PMS7003;66628;53.946;27.634;2023-02-01T01:08:43;1.666667;1.166667;0.533333
77516;PMS7003;66628;53.946;27.634;2023-02-01T01:09:42;2.250000;1.233333;0.750000
77516;PMS7003;66628;53.946;27.634;2023-02-01T01:10:43;1.333333;0.633333;0.300000
77516;PMS7003;66628;53.946;27.634;2023-02-01T01:11:42;1.800000;1.033333;0.633333
77516;PMS7003;66628;53.946;27.634;2023-02-01T01:12:42;1.300000;1.266667;0.450000
77516;PMS7003;66628;53.946;27.634;2023-02-01T01:13:43;1.833333;0.866667;0.700000
77516;PMS7003;66628;53.946;27.634;2023-02-01T01:14:42;1.450000;1.450000;0.733333
77516;PMS7003;66628;53.946;27.634;2023-02-01T01:15:42;1.000000;1.000000;0.366667
77516;PMS7003;66628;53.946;27.634;2023-02-01T01:16:42;1.700000;1.466667;0.550000
77516;PMS7003;66628;53.946;27.634;2023-02-01T01:17:42;1.366667;1.366667;0.766667
77516;PMS7003;66628;53.946;27.634;2023-02-01T01:18:42;1.016667;0.683333;0.383333
77516;PMS7003;66628;53.946;27.634;2023-02-01T01:19:42;1.266667;1.033333;0.550000
77516;PMS7003;66628;53.946;27.634;2023-02-01T01:20:42;0.950000;0.633333;0.150000
77516;PMS7003;66628;53.946;27.634;2023-02-01T01:21:42;1.233333;1.000000;0.866667
77516;PMS7003;66628;53.946;27.634;2023-02-01T01:22:42;1.633333;1.166667;0.483333
77516;PMS7003;66628;53.946;27.634;2023-02-01T01:23:43;1.683333;1.150000;0.683333
77516;PMS7003;66628;53.946;27.634;2023-02-01T01:24:43;0.800000;0.800000;0.666667
77516;PMS7003;66628;53.946;27.634;2023-02-01T01:25:42;2.100000;1.633333;0.933333
77516;PMS7003;66628;53.946;27.634;2023-02-01T01:26:42;1.666667;1.366667;0.933333
77516;PMS7003;66628;53.946;27.634;2023-02-01T01:27:42;2.583333;1.566667;0.833333
77516;PMS7003;66628;53.946;27.634;2023-02-01T01:28:42;2.533333;1.366667;0.716667
77516;PMS7003;66628;53.946;27.634;2023-02-01T01:29:42;1.600000;1.600000;0.900000
77516;PMS7003;66628;53.946;27.634;2023-02-01T01:30:42;1.383333;1.216667;0.650000
77516;PMS7003;66628;53.946;27.634;2023-02-01T01:31:42;1.450000;1.216667;0.766667
77516;PMS7003;66628;53.946;27.634;2023-02-01T01:32:42;1.000000;0.500000;0.250000
77516;PMS7003;66628;53.946;27.634;2023-02-01T01:33:42;1.500000;1.033333;0.850000
77516;PMS7003;66628;53.946;27.634;2023-02-01T01:34:42;1.800000;1.366667;0.833333
77516;PMS7003;66628;53.946;27.634;2023-02-01T01:35:42;1.233333;1.233333;0.800000
77516;PMS7003;66628;53.946;27.634;2023-02-01T01:36:42;0.916667;0.916667;0.233333
77516;PMS7003;66628;53.946;27.634;2023-02-01T01:37:42;0.650000;0.650000;0.650000
77516;PMS7003;66628;53.946;27.634;2023-02-01T01:38:42;1.916667;1.450000;0.733333
77516;PMS7003;66628;53.946;27.634;2023-02-01T01:39:42;1.433333;1.433333;0.966667
77516;PMS7003;66628;53.946;27.634;2023-02-01T01:40:47;2.233333;1.100000;0.366667
77516;PMS7003;66628;53.946;27.634;2023-02-01T01:41:42;0.933333;0.933333;0.266667
77516;PMS7003;66628;53.946;27.634;2023-02-01T01:42:43;2.250000;1.316667;0.800000
77516;PMS7003;66628;53.946;27.634;2023-02-01T01:45:43;1.500000;1.300000;0.866667
77516;PMS7003;66628;53.946;27.634;2023-02-01T01:46:42;0.500000;0.400000;0.266667
77516;PMS7003;66628;53.946;27.634;2023-02-01T01:47:48;1.300000;1.300000;0.450000
77516;PMS7003;66628;53.946;27.634;2023-02-01T01:48:42;1.766667;1.766667;0.716667
77516;PMS7003;66628;53.946;27.634;2023-02-01T01:49:43;1.966667;1.966667;0.933333
77516;PMS7003;66628;53.946;27.634;2023-02-01T01:50:46;1.800000;1.566667;1.300000
77516;PMS7003;66628;53.946;27.634;2023-02-01T01:51:54;1.516667;1.050000;0.583333
77516;PMS7003;66628;53.946;27.634;2023-02-01T01:52:46;1.733333;1.450000;0.483333
77516;PMS7003;66628;53.946;27.634;2023-02-01T01:53:46;1.683333;1.416667;0.750000
77516;PMS7003;66628;53.946;27.634;2023-02-01T01:54:45;1.400000;0.866667;0.666667
77516;PMS7003;66628;53.946;27.634;2023-02-01T01:55:43;1.733333;1.166667;0.450000
77516;PMS7003;66628;53.946;27.634;2023-02-01T01:56:43;0.633333;0.500000;0.316667
77516;PMS7003;66628;53.946;27.634;2023-02-01T01:57:45;1.233333;1.116667;0.466667
77516;PMS7003;66628;53.946;27.634;2023-02-01T01:58:42;1.500000;1.500000;0.616667
77516;PMS7003;66628;53.946;27.634;2023-02-01T01:59:48;1.366667;1.000000;0.233333
77516;PMS7003;66628;53.946;27.634;2023-02-01T02:00:43;1.466667;1.066667;0.666667
77516;PMS7003;66628;53.946;27.634;2023-02-01T02:01:42;2.016667;1.383333;0.916667
77516;PMS7003;66628;53.946;27.634;2023-02-01T02:02:44;1.233333;1.233333;0.850000
77516;PMS7003;66628;53.946;27.634;2023-02-01T02:03:43;1.933333;1.050000;0.433333
77516;PMS7003;66628;53.946;27.634;2023-02-01T02:04:42;1.050000;1.050000;0.750000
77516;PMS7003;66628;53.946;27.634;2023-02-01T02:05:43;1.216667;1.216667;0.950000
77516;PMS7003;66628;53.946;27.634;2023-02-01T02:06:47;1.583333;1.116667;0.350000
77516;PMS7003;66628;53.946;27.634;2023-02-01T02:07:46;0.933333;0.583333;0.366667
77516;PMS7003;66628;53.946;27.634;2023-02-01T02:08:42;1.283333;0.983333;0.300000
77516;PMS7003;66628;53.946;27.634;2023-02-01T02:09:42;1.383333;0.800000;0.366667
77516;PMS7003;66628;53.946;27.634;2023-02-01T02:10:43;0.900000;0.800000;0.283333
77516;PMS7003;66628;53.946;27.634;2023-02-01T02:11:42;1.233333;1.233333;0.733333
77516;PMS7003;66628;53.946;27.634;2023-02-01T02:12:44;1.866667;1.866667;0.800000
77516;PMS7003;66628;53.946;27.634;2023-02-01T02:13:47;1.950000;1.200000;0.700000
77516;PMS7003;66628;53.946;27.634;2023-02-01T02:14:42;2.166667;1.033333;0.566667
77516;PMS7003;66628;53.946;27.634;2023-02-01T02:15:48;2.100000;1.833333;1.066667
77516;PMS7003;66628;53.946;27.634;2023-02-01T02:18:57;1.916667;1.483333;1.050000
77516;PMS7003;66628;53.946;27.634;2023-02-01T02:27:56;1.216667;0.950000;0.866667
77516;PMS7003;66628;53.946;27.634;2023-02-01T02:28:51;2.166667;1.400000;0.600000
77516;PMS7003;66628;53.946;27.634;2023-02-01T02:30:02;1.050000;1.050000;0.516667
77516;PMS7003;66628;53.946;27.634;2023-02-01T02:30:57;2.000000;1.866667;0.833333
77516;PMS7003;66628;53.946;27.634;2023-02-01T02:34:52;2.366667;1.633333;0.866667
77516;PMS7003;66628;53.946;27.634;2023-02-01T02:37:50;1.966667;1.216667;0.783333
77516;PMS7003;66628;53.946;27.634;2023-02-01T02:38:54;1.583333;1.400000;1.000000
77516;PMS7003;66628;53.946;27.634;2023-02-01T02:40:52;1.033333;0.933333;0.400000
77516;PMS7003;66628;53.946;27.634;2023-02-01T02:41:54;1.900000;1.133333;0.466667
77516;PMS7003;66628;53.946;27.634;2023-02-01T02:43:49;1.683333;1.383333;0.966667
77516;PMS7003;66628;53.946;27.634;2023-02-01T02:44:53;1.533333;1.516667;0.700000
77516;PMS7003;66628;53.946;27.634;2023-02-01T02:45:51;0.566667;0.566667;0.466667
77516;PMS7003;66628;53.946;27.634;2023-02-01T02:46:47;1.566667;1.566667;0.850000
77516;PMS7003;66628;53.946;27.634;2023-02-01T02:47:52;1.950000;1.800000;0.950000
77516;PMS7003;66628;53.946;27.634;2023-02-01T02:48:50;1.300000;1.033333;0.733333
77516;PMS7003;66628;53.946;27.634;2023-02-01T02:50:59;0.550000;0.550000;0.416667
77516;PMS7003;66628;53.946;27.634;2023-02-01T02:51:46;1.783333;1.616667;0.800000
77516;PMS7003;66628;53.946;27.634;2023-02-01T02:52:52;1.666667;1.300000;0.716667
77516;PMS7003;66628;53.946;27.634;2023-02-01T02:53:58;1.633333;1.433333;0.783333
77516;PMS7003;66628;53.946;27.634;2023-02-01T02:54:46;0.600000;0.600000;0.383333
77516;PMS7003;66628;53.946;27.634;2023-02-01T02:55:43;1.233333;0.900000;0.600000
77516;PMS7003;66628;53.946;27.634;2023-02-01T02:56:42;1.716667;1.383333;0.716667
77516;PMS7003;66628;53.946;27.634;2023-02-01T02:57:44;1.633333;1.633333;1.083333
77516;PMS7003;66628;53.946;27.634;2023-02-01T02:58:43;2.800000;2.366667;1.150000
77516;PMS7003;66628;53.946;27.634;2023-02-01T02:59:44;1.250000;0.916667;0.533333
77516;PMS7003;66628;53.946;27.634;2023-02-01T03:00:43;2.016667;1.983333;0.983333
77516;PMS7003;66628;53.946;27.634;2023-02-01T03:01:43;1.783333;1.783333;1.083333
77516;PMS7003;66628;53.946;27.634;2023-02-01T03:02:42;1.883333;1.350000;0.900000
77516;PMS7003;66628;53.946;27.634;2023-02-01T03:03:43;1.766667;1.766667;0.983333
77516;PMS7003;66628;53.946;27.634;2023-02-01T03:04:42;2.516667;2.183333;0.783333
77516;PMS7003;66628;53.946;27.634;2023-02-01T03:05:45;2.416667;2.083333;1.516667
77516;PMS7003;66628;53.946;27.634;2023-02-01T03:06:42;2.066667;1.600000;0.800000
77516;PMS7003;66628;53.946;27.634;2023-02-01T03:08:42;3.516667;2.950000;1.666667
77516;PMS7003;66628;53.946;27.634;2023-02-01T03:09:45;3.266667;2.633333;1.133333
77516;PMS7003;66628;53.946;27.634;2023-02-01T03:11:44;2.966667;2.633333;1.333333
77516;PMS7003;66628;53.946;27.634;2023-02-01T03:12:43;1.366667;1.366667;0.933333
77516;PMS7003;66628;53.946;27.634;2023-02-01T03:13:47;2.750000;1.683333;0.900000
77516;PMS7003;66628;53.946;27.634;2023-02-01T03:14:43;1.400000;1.400000;1.166667
77516;PMS7003;66628;53.946;27.634;2023-02-01T03:16:49;2.650000;2.650000;1.683333
77516;PMS7003;66628;53.946;27.634;2023-02-01T03:17:44;2.933333;2.466667;1.816667
77516;PMS7003;66628;53.946;27.634;2023-02-01T03:18:50;3.150000;2.300000;1.600000
77516;PMS7003;66628;53.946;27.634;2023-02-01T03:19:46;2.466667;2.233333;1.700000
77516;PMS7003;66628;53.946;27.634;2023-02-01T03:20:45;2.866667;2.866667;1.700000
77516;PMS7003;66628;53.946;27.634;2023-02-01T03:21:50;2.866667;2.700000;1.866667
77516;PMS7003;66628;53.946;27.634;2023-02-01T03:22:44;2.750000;2.750000;1.633333
77516;PMS7003;66628;53.946;27.634;2023-02-01T03:23:43;3.150000;2.600000;1.966667
77516;PMS7003;66628;53.946;27.634;2023-02-01T03:24:49;3.933333;2.700000;1.366667
77516;PMS7003;66628;53.946;27.634;2023-02-01T03:25:42;3.283333;2.950000;1.683333
77516;PMS7003;66628;53.946;27.634;2023-02-01T03:26:48;3.433333;3.300000;2.400000
77516;PMS7003;66628;53.946;27.634;2023-02-01T03:27:49;3.133333;2.433333;1.800000
77516;PMS7003;66628;53.946;27.634;2023-02-01T03:28:50;3.300000;3.300000;2.333333
77516;PMS7003;66628;53.946;27.634;2023-02-01T03:29:52;3.516667;3.350000;2.250000
77516;PMS7003;66628;53.946;27.634;2023-02-01T03:30:43;2.516667;2.433333;1.966667
77516;PMS7003;66628;53.946;27.634;2023-02-01T03:31:42;3.700000;3.266667;1.866667
77516;PMS7003;66628;53.946;27.634;2023-02-01T03:32:42;4.050000;4.050000;2.616667
77516;PMS7003;66628;53.946;27.634;2023-02-01T03:33:42;3.866667;3.400000;2.466667
77516;PMS7003;66628;53.946;27.634;2023-02-01T03:34:42;3.266667;2.733333;2.033333
77516;PMS7003;66628;53.946;27.634;2023-02-01T03:35:57;3.750000;3.450000;1.950000
77516;PMS7003;66628;53.946;27.634;2023-02-01T03:37:42;4.383333;3.450000;2.400000
77516;PMS7003;66628;53.946;27.634;2023-02-01T03:39:53;3.750000;3.283333;2.550000
77516;PMS7003;66628;53.946;27.634;2023-02-01T03:40:46;3.966667;3.233333;1.900000
77516;PMS7003;66628;53.946;27.634;2023-02-01T03:41:53;3.750000;3.583333;2.566667
77516;PMS7003;66628;53.946;27.634;2023-02-01T03:42:48;3.350000;3.350000;2.583333
77516;PMS7003;66628;53.946;27.634;2023-02-01T03:43:49;4.650000;4.483333;2.783333
77516;PMS7003;66628;53.946;27.634;2023-02-01T03:44:49;3.683333;3.350000;2.116667
77516;PMS7003;66628;53.946;27.634;2023-02-01T03:45:44;4.666667;3.016667;2.100000
77516;PMS7003;66628;53.946;27.634;2023-02-01T03:47:46;4.350000;3.900000;2.850000
77516;PMS7003;66628;53.946;27.634;2023-02-01T03:48:43;3.916667;3.283333;2.016667
77516;PMS7003;66628;53.946;27.634;2023-02-01T03:49:46;3.866667;3.533333;2.966667
77516;PMS7003;66628;53.946;27.634;2023-02-01T03:50:50;5.000000;5.000000;3.433333
77516;PMS7003;66628;53.946;27.634;2023-02-01T03:51:42;4.200000;3.966667;3.183333
77516;PMS7003;66628;53.946;27.634;2023-02-01T03:52:53;3.450000;3.333333;2.850000
77516;PMS7003;66628;53.946;27.634;2023-02-01T03:53:44;4.583333;4.333333;3.383333
77516;PMS7003;66628;53.946;27.634;2023-02-01T03:54:43;4.016667;3.750000;2.983333
77516;PMS7003;66628;53.946;27.634;2023-02-01T03:55:42;4.500000;4.133333;2.833333
77516;PMS7003;66628;53.946;27.634;2023-02-01T03:56:44;5.600000;5.350000;3.600000
77516;PMS7003;66628;53.946;27.634;2023-02-01T03:57:58;5.266667;4.866667;3.700000
77516;PMS7003;66628;53.946;27.634;2023-02-01T03:58:42;5.550000;5.016667;3.483333
77516;PMS7003;66628;53.946;27.634;2023-02-01T03:59:44;5.033333;5.000000;3.833333
77516;PMS7003;66628;53.946;27.634;2023-02-01T04:00:51;3.916667;3.683333;2.783333
77516;PMS7003;66628;53.946;27.634;2023-02-01T04:01:42;6.283333;5.833333;4.566667
77516;PMS7003;66628;53.946;27.634;2023-02-01T04:02:42;6.100000;5.466667;3.900000
77516;PMS7003;66628;53.946;27.634;2023-02-01T04:03:42;4.616667;4.616667;3.483333
77516;PMS7003;66628;53.946;27.634;2023-02-01T04:04:42;4.933333;4.933333;4.133333
77516;PMS7003;66628;53.946;27.634;2023-02-01T04:05:42;5.416667;5.416667;3.866667
77516;PMS7003;66628;53.946;27.634;2023-02-01T04:06:42;6.083333;6.083333;4.483333
77516;PMS7003;66628;53.946;27.634;2023-02-01T04:07:42;6.416667;5.816667;4.483333
77516;PMS7003;66628;53.946;27.634;2023-02-01T04:08:42;5.750000;5.583333;4.216667
77516;PMS7003;66628;53.946;27.634;2023-02-01T04:09:42;6.333333;5.200000;4.000000
77516;PMS7003;66628;53.946;27.634;2023-02-01T04:10:42;6.033333;6.033333;4.550000
77516;PMS7003;66628;53.946;27.634;2023-02-01T04:11:42;6.683333;6.683333;5.033333
77516;PMS7003;66628;53.946;27.634;2023-02-01T04:12:42;8.383333;7.550000;5.250000
77516;PMS7003;66628;53.946;27.634;2023-02-01T04:13:42;6.866667;6.733333;5.000000
77516;PMS7003;66628;53.946;27.634;2023-02-01T04:14:42;8.500000;7.233333;5.533333
77516;PMS7003;66628;53.946;27.634;2023-02-01T04:15:42;6.300000;6.033333;4.766667
77516;PMS7003;66628;53.946;27.634;2023-02-01T04:16:42;7.716667;7.116667;5.050000
77516;PMS7003;66628;53.946;27.634;2023-02-01T04:17:42;7.383333;7.383333;5.466667
77516;PMS7003;66628;53.946;27.634;2023-02-01T04:18:42;7.400000;6.633333;5.233333
77516;PMS7003;66628;53.946;27.634;2023-02-01T04:19:42;7.416667;7.216667;5.450000
77516;PMS7003;66628;53.946;27.634;2023-02-01T04:20:42;9.650000;7.983333;6.083333
77516;PMS7003;66628;53.946;27.634;2023-02-01T04:21:42;9.583333;8.950000;6.450000
77516;PMS7003;66628;53.946;27.634;2023-02-01T04:22:43;7.933333;7.933333;6.083333
77516;PMS7003;66628;53.946;27.634;2023-02-01T04:23:42;6.816667;6.750000;5.250000
77516;PMS7003;66628;53.946;27.634;2023-02-01T04:24:42;8.916667;8.000000;5.783333
77516;PMS7003;66628;53.946;27.634;2023-02-01T04:25:42;8.083333;6.683333;5.483333
77516;PMS7003;66628;53.946;27.634;2023-02-01T04:26:42;8.116667;7.916667;6.283333
77516;PMS7003;66628;53.946;27.634;2023-02-01T04:27:42;9.333333;8.200000;6.166667
77516;PMS7003;66628;53.946;27.634;2023-02-01T04:28:45;8.416667;7.450000;5.700000
77516;PMS7003;66628;53.946;27.634;2023-02-01T04:29:42;8.683333;8.150000;6.183333
77516;PMS7003;66628;53.946;27.634;2023-02-01T04:30:42;9.733334;8.533334;6.400000
77516;PMS7003;66628;53.946;27.634;2023-02-01T04:31:42;9.333333;9.333333;6.200000
77516;PMS7003;66628;53.946;27.634;2023-02-01T04:32:42;7.783333;7.650000;5.816667
77516;PMS7003;66628;53.946;27.634;2023-02-01T04:33:43;9.366667;8.600000;6.550000
77516;PMS7003;66628;53.946;27.634;2023-02-01T04:34:42;10.066667;9.433333;6.633333
77516;PMS7003;66628;53.946;27.634;2023-02-01T04:35:42;8.883333;8.250000;7.016667
77516;PMS7003;66628;53.946;27.634;2023-02-01T04:36:42;9.466666;8.533334;6.133333
77516;PMS7003;66628;53.946;27.634;2023-02-01T04:37:42;8.233334;7.466667;6.150000
77516;PMS7003;66628;53.946;27.634;2023-02-01T04:38:42;8.316667;7.866667;6.250000
77516;PMS7003;66628;53.946;27.634;2023-02-01T04:39:42;8.883333;8.350000;6.050000
77516;PMS7003;66628;53.946;27.634;2023-02-01T04:40:42;8.533334;7.600000;6.300000
77516;PMS7003;66628;53.946;27.634;2023-02-01T04:41:42;10.266666;9.166667;6.766667
77516;PMS7003;66628;53.946;27.634;2023-02-01T04:42:42;7.566667;7.566667;5.800000
77516;PMS7003;66628;53.946;27.634;2023-02-01T04:43:42;8.816667;8.183333;5.766667
77516;PMS7003;66628;53.946;27.634;2023-02-01T04:44:42;8.350000;8.116667;5.883333
77516;PMS7003;66628;53.946;27.634;2023-02-01T04:45:47;7.316667;7.216667;5.016667
77516;PMS7003;66628;53.946;27.634;2023-02-01T04:46:42;8.933333;8.666667;6.266667
77516;PMS7003;66628;53.946;27.634;2023-02-01T04:47:42;8.250000;7.550000;5.416667
77516;PMS7003;66628;53.946;27.634;2023-02-01T04:48:42;8.766666;8.066667;6.333333
77516;PMS7003;66628;53.946;27.634;2023-02-01T04:49:42;8.600000;7.766667;5.533333
77516;PMS7003;66628;53.946;27.634;2023-02-01T04:50:43;9.283334;8.783334;6.750000
77516;PMS7003;66628;53.946;27.634;2023-02-01T04:51:42;7.366667;6.600000;5.033333
77516;PMS7003;66628;53.946;27.634;2023-02-01T04:52:42;8.416667;8.083333;6.016667
77516;PMS7003;66628;53.946;27.634;2023-02-01T04:53:42;7.666667;7.333333;5.400000
77516;PMS7003;66628;53.946;27.634;2023-02-01T04:54:42;6.950000;6.950000;5.216667
77516;PMS7003;66628;53.946;27.634;2023-02-01T04:55:43;8.483334;7.750000;5.900000
77516;PMS7003;66628;53.946;27.634;2023-02-01T04:56:42;7.683333;7.200000;5.466667
77516;PMS7003;66628;53.946;27.634;2023-02-01T04:57:42;7.833333;7.766667;6.166667
77516;PMS7003;66628;53.946;27.634;2023-02-01T04:58:42;7.883333;7.650000;5.950000
77516;PMS7003;66628;53.946;27.634;2023-02-01T04:59:42;8.316667;8.200000;6.383333
77516;PMS7003;66628;53.946;27.634;2023-02-01T05:00:42;6.450000;5.850000;4.650000
77516;PMS7003;66628;53.946;27.634;2023-02-01T05:01:42;8.366667;7.366667;5.233333
77516;PMS7003;66628;53.946;27.634;2023-02-01T05:02:42;7.733333;6.666667;4.900000
77516;PMS7003;66628;53.946;27.634;2023-02-01T05:03:42;8.000000;7.633333;5.600000
77516;PMS7003;66628;53.946;27.634;2023-02-01T05:04:42;6.916667;6.916667;4.866667
77516;PMS7003;66628;53.946;27.634;2023-02-01T05:05:42;7.383333;6.683333;4.616667
77516;PMS7003;66628;53.946;27.634;2023-02-01T05:06:42;7.016667;7.016667;5.150000
77516;PMS7003;66628;53.946;27.634;2023-02-01T05:07:42;9.083333;8.283334;6.016667
77516;PMS7003;66628;53.946;27.634;2023-02-01T05:08:42;8.750000;8.000000;5.600000
77516;PMS7003;66628;53.946;27.634;2023-02-01T05:09:42;7.400000;6.300000;4.733333
77516;PMS7003;66628;53.946;27.634;2023-02-01T05:10:42;6.700000;6.466667;4.966667
77516;PMS7003;66628;53.946;27.634;2023-02-01T05:11:42;7.416667;6.750000;4.916667
77516;PMS7003;66628;53.946;27.634;2023-02-01T05:12:43;7.233333;6.466667;4.933333
77516;PMS7003;66628;53.946;27.634;2023-02-01T05:13:42;6.416667;6.066667;4.483333
77516;PMS7003;66628;53.946;27.634;2023-02-01T05:14:42;7.033333;6.633333;4.933333
77516;PMS7003;66628;53.946;27.634;2023-02-01T05:15:42;6.200000;5.333333;4.200000
77516;PMS7003;66628;53.946;27.634;2023-02-01T05:16:45;7.383333;6.383333;5.116667
77516;PMS7003;66628;53.946;27.634;2023-02-01T05:17:42;8.033334;6.933333;5.200000
77516;PMS7003;66628;53.946;27.634;2023-02-01T05:18:44;8.233334;7.616667;5.200000
77516;PMS7003;66628;53.946;27.634;2023-02-01T05:19:42;7.916667;6.950000;5.100000
77516;PMS7003;66628;53.946;27.634;2023-02-01T05:20:42;6.683333;6.383333;4.883333